Time;durP1;ratioP1;P1;durP2;ratioP2;P2;SDS_P1;SDS_P2;PMS_P1;PMS_P2;Temp;Humidity;BMP_temperature;BMP_pressure;BME280_temperature;BME280_humidity;BME280_pressure;Samples;Min_cycle;Max_cycle;Signal;HPM_P1;HPM_P2
2023/06/30 00:02:06;;;;;;;6.70;4.10;;;;;;;21.06;60.82;99973.58;108392;1281;21987;-68
2023/06/30 00:04:32;;;;;;;6.40;4.10;;;;;;;21.03;60.58;99975.55;108394;1279;21994;-59
2023/06/30 00:06:59;;;;;;;5.40;3.80;;;;;;;21.00;60.75;99978.45;108416;1283;21989;-67
2023/06/30 00:09:25;;;;;;;7.50;4.80;;;;;;;20.99;60.25;99985.77;108429;1283;21982;-59
2023/06/30 00:11:53;;;;;;;5.50;4.00;;;;;;;20.99;60.20;99986.48;108370;1282;21990;-67
2023/06/30 00:14:22;;;;;;;7.90;4.30;;;;;;;21.02;59.67;99986.70;108405;1281;21980;-67
2023/06/30 00:16:49;;;;;;;7.40;4.30;;;;;;;21.03;59.60;99986.05;108361;1283;21986;-67
2023/06/30 00:19:16;;;;;;;6.20;4.30;;;;;;;21.05;59.34;99983.29;108463;1282;21986;-67
2023/06/30 00:21:42;;;;;;;7.30;4.30;;;;;;;21.03;59.89;99982.33;108421;1281;22018;-58
2023/06/30 00:24:16;;;;;;;5.30;4.10;;;;;;;20.99;59.45;99977.05;108453;1278;22037;-67
2023/06/30 00:26:42;;;;;;;5.60;4.10;;;;;;;20.95;59.49;99978.52;108415;1282;21990;-59
2023/06/30 00:29:08;;;;;;;7.20;4.60;;;;;;;20.92;59.55;99976.59;108402;1278;21987;-59
2023/06/30 00:31:34;;;;;;;5.50;4.30;;;;;;;20.89;59.55;99980.17;108419;1278;21991;-59
2023/06/30 00:33:59;;;;;;;6.00;4.20;;;;;;;20.88;59.69;99977.20;108452;1276;21999;-59
2023/06/30 00:36:25;;;;;;;9.20;4.80;;;;;;;20.91;59.81;99974.16;108372;1281;21985;-67
2023/06/30 00:38:51;;;;;;;7.30;4.20;;;;;;;21.03;59.47;99971.45;108375;1278;22446;-67
2023/06/30 00:41:18;;;;;;;4.60;3.60;;;;;;;21.11;59.25;99968.06;108396;1271;21979;-66
2023/06/30 00:43:44;;;;;;;5.70;4.20;;;;;;;21.15;59.45;99970.54;108410;1282;21985;-67
2023/06/30 00:46:10;;;;;;;6.40;4.40;;;;;;;21.10;59.89;99965.34;108433;1282;21978;-66
2023/06/30 00:48:35;;;;;;;7.90;4.40;;;;;;;20.97;60.48;99963.09;108375;1278;22089;-67
2023/06/30 00:51:01;;;;;;;7.10;4.40;;;;;;;21.07;59.83;99965.33;108380;1282;21978;-66
2023/06/30 00:53:26;;;;;;;5.70;4.70;;;;;;;21.09;59.53;99964.83;108371;1282;21968;-59
2023/06/30 00:55:52;;;;;;;7.20;4.30;;;;;;;21.09;59.50;99965.73;108379;1272;21990;-60
2023/06/30 00:58:17;;;;;;;7.30;4.50;;;;;;;21.05;60.26;99962.55;108424;1281;22004;-67
2023/06/30 01:00:43;;;;;;;8.30;4.60;;;;;;;21.03;59.94;99958.23;108417;1278;21992;-59
2023/06/30 01:03:29;;;;;;;6.30;4.50;;;;;;;21.03;59.79;99959.86;108409;1272;21993;-59
2023/06/30 01:06:00;;;;;;;5.20;4.10;;;;;;;21.05;60.08;99962.38;108371;1272;22025;-66
2023/06/30 01:08:34;;;;;;;5.40;4.50;;;;;;;21.05;60.06;99959.34;108357;1283;22447;-67
2023/06/30 01:11:00;;;;;;;6.20;4.80;;;;;;;21.07;59.90;99955.86;108376;1278;21985;-59
2023/06/30 01:13:27;;;;;;;6.30;4.90;;;;;;;21.09;59.85;99950.94;108256;1283;21986;-59
2023/06/30 01:15:53;;;;;;;5.80;4.10;;;;;;;21.12;59.76;99949.35;108139;1283;21986;-67
2023/06/30 01:18:19;;;;;;;7.30;5.10;;;;;;;21.14;60.03;99949.02;108252;1283;21997;-61
2023/06/30 01:20:46;;;;;;;7.10;5.20;;;;;;;21.08;59.97;99949.06;108139;1278;21988;-67
2023/06/30 01:23:44;;;;;;;7.80;4.90;;;;;;;20.95;60.56;99950.92;108436;1278;22627;-66
2023/06/30 01:26:09;;;;;;;9.50;5.30;;;;;;;21.03;60.32;99960.20;108236;1283;21994;-60
2023/06/30 01:28:37;;;;;;;6.00;4.60;;;;;;;21.04;59.96;99958.15;108318;1283;21993;-67
2023/06/30 01:31:08;;;;;;;6.20;4.90;;;;;;;21.02;59.92;99954.23;108112;1277;21994;-63
2023/06/30 01:33:38;;;;;;;8.00;4.80;;;;;;;20.96;59.97;99959.02;108377;1283;21997;-67
2023/06/30 01:36:04;;;;;;;8.40;5.10;;;;;;;20.92;59.86;99961.27;108408;1283;21993;-66
2023/06/30 01:38:30;;;;;;;10.90;5.60;;;;;;;20.86;60.11;99958.21;108386;1279;21987;-60
2023/06/30 01:40:56;;;;;;;7.80;5.70;;;;;;;20.79;59.75;99954.54;108385;1279;21991;-59
2023/06/30 01:43:25;;;;;;;6.20;5.40;;;;;;;20.73;59.48;99949.55;108220;1274;22113;-59
2023/06/30 01:45:50;;;;;;;7.40;5.90;;;;;;;20.66;60.98;99948.91;108088;1283;22450;-59
2023/06/30 01:48:16;;;;;;;6.30;4.90;;;;;;;20.55;63.02;99959.17;108075;1281;21986;-68
2023/06/30 01:50:42;;;;;;;5.40;4.60;;;;;;;20.48;61.87;99956.20;108098;1282;21987;-59
2023/06/30 01:53:07;;;;;;;6.30;4.90;;;;;;;20.44;61.25;99955.23;108142;1280;21994;-60
2023/06/30 01:55:33;;;;;;;6.70;4.80;;;;;;;20.41;61.11;99959.84;108385;1283;21983;-60
2023/06/30 01:57:58;;;;;;;9.30;5.70;;;;;;;20.40;61.91;99961.71;108374;1282;21994;-59
2023/06/30 02:00:24;;;;;;;9.90;5.50;;;;;;;20.36;61.66;99959.24;108358;1275;21991;-59
2023/06/30 02:02:50;;;;;;;7.40;5.20;;;;;;;20.31;62.87;99955.44;108370;1281;21985;-59
2023/06/30 02:05:15;;;;;;;6.90;5.70;;;;;;;20.27;63.47;99955.34;108382;1274;22023;-67
2023/06/30 02:07:42;;;;;;;8.20;5.70;;;;;;;20.23;64.22;99958.23;108356;1271;21985;-59
2023/06/30 02:10:08;;;;;;;7.20;5.20;;;;;;;20.22;63.01;99957.60;108314;1277;21988;-59
2023/06/30 02:12:34;;;;;;;11.30;5.40;;;;;;;20.20;64.18;99966.41;108385;1283;22449;-60
2023/06/30 02:14:59;;;;;;;9.50;5.70;;;;;;;20.19;63.86;99968.63;108413;1278;22000;-67
2023/06/30 02:17:27;;;;;;;7.90;5.20;;;;;;;20.19;63.57;99968.81;108348;1283;22005;-67
2023/06/30 02:19:52;;;;;;;7.70;5.30;;;;;;;20.18;62.97;99968.14;108398;1283;21983;-67
2023/06/30 02:22:18;;;;;;;8.00;5.50;;;;;;;20.16;63.50;99973.63;108379;1281;21984;-59
2023/06/30 02:24:44;;;;;;;7.90;5.50;;;;;;;20.16;63.30;99972.91;108315;1283;22003;-59
2023/06/30 02:27:09;;;;;;;8.70;5.80;;;;;;;20.15;63.53;99972.26;108394;1274;23624;-67
2023/06/30 02:29:35;;;;;;;6.70;5.10;;;;;;;20.14;63.65;99972.83;108347;1281;22023;-59
2023/06/30 02:32:01;;;;;;;8.70;6.00;;;;;;;20.14;63.22;99968.89;108350;1272;21988;-59
2023/06/30 02:34:27;;;;;;;8.60;5.70;;;;;;;20.16;63.36;99971.29;108331;1283;21985;-59
2023/06/30 02:36:53;;;;;;;8.30;5.50;;;;;;;20.17;63.33;99973.88;108341;1283;21986;-67
2023/06/30 02:39:18;;;;;;;11.30;6.40;;;;;;;20.21;63.36;99975.61;108380;1282;21993;-59
2023/06/30 02:41:44;;;;;;;8.50;6.00;;;;;;;20.24;63.92;99971.71;108326;1282;21996;-67
2023/06/30 02:44:10;;;;;;;8.20;6.00;;;;;;;20.25;63.88;99971.31;108320;1278;22020;-67
2023/06/30 02:46:37;;;;;;;14.80;5.70;;;;;;;20.19;65.60;99973.95;108425;1275;21993;-68
2023/06/30 02:49:03;;;;;;;6.30;5.50;;;;;;;20.27;64.68;99972.27;108337;1277;21983;-68
2023/06/30 02:51:28;;;;;;;9.20;5.80;;;;;;;20.30;65.30;99971.36;108330;1278;21986;-59
2023/06/30 02:53:54;;;;;;;12.40;6.50;;;;;;;20.36;64.62;99973.66;108351;1280;21980;-59
2023/06/30 02:56:20;;;;;;;7.50;5.60;;;;;;;20.43;64.84;99975.79;108337;1273;22241;-59
2023/06/30 02:58:45;;;;;;;8.00;5.70;;;;;;;20.49;64.23;99979.70;108327;1280;22019;-59
2023/06/30 03:01:11;;;;;;;9.60;5.90;;;;;;;20.56;64.23;99982.12;108351;1283;21980;-60
2023/06/30 03:03:36;;;;;;;8.30;5.60;;;;;;;20.61;64.87;99982.73;108329;1281;21984;-59
2023/06/30 03:06:02;;;;;;;11.80;6.10;;;;;;;20.63;65.24;99977.41;108356;1278;23712;-68
2023/06/30 03:08:30;;;;;;;9.20;5.70;;;;;;;20.66;64.71;99973.50;108375;1280;22002;-68
2023/06/30 03:10:55;;;;;;;7.60;5.50;;;;;;;20.70;64.51;99974.48;108399;1277;22011;-68
2023/06/30 03:13:21;;;;;;;8.80;6.10;;;;;;;20.74;64.50;99976.42;108417;1280;21994;-68
2023/06/30 03:15:46;;;;;;;10.00;5.80;;;;;;;20.77;64.67;99968.59;108384;1282;21980;-68
2023/06/30 03:18:12;;;;;;;9.00;5.60;;;;;;;20.79;65.25;99967.55;108417;1278;21984;-68
2023/06/30 03:20:37;;;;;;;10.20;5.20;;;;;;;20.84;65.33;99969.96;108359;1275;21988;-59
2023/06/30 03:23:03;;;;;;;12.00;5.90;;;;;;;20.88;65.72;99968.10;108460;1283;23709;-68
2023/06/30 03:25:29;;;;;;;11.00;6.00;;;;;;;20.92;66.50;99965.52;108386;1278;21997;-59
2023/06/30 03:27:55;;;;;;;10.00;5.90;;;;;;;20.99;66.50;99963.64;108495;1276;22023;-59
2023/06/30 03:30:21;;;;;;;8.20;5.90;;;;;;;21.07;66.33;99960.84;108391;1282;21995;-67
2023/06/30 03:32:47;;;;;;;11.80;5.70;;;;;;;21.16;66.45;99963.17;108466;1279;22080;-59
2023/06/30 03:35:12;;;;;;;8.40;5.70;;;;;;;21.24;66.22;99961.59;108448;1274;21983;-59
2023/06/30 03:37:39;;;;;;;11.30;5.80;;;;;;;21.32;66.20;99965.55;108446;1281;21980;-68
2023/06/30 03:40:05;;;;;;;7.30;5.30;;;;;;;21.41;66.05;99966.59;108411;1283;23602;-67
2023/06/30 03:42:32;;;;;;;8.90;5.80;;;;;;;21.51;65.24;99963.39;108445;1274;22023;-59
2023/06/30 03:44:58;;;;;;;12.30;5.70;;;;;;;21.63;65.17;99964.30;108350;1282;21999;-67
2023/06/30 03:47:24;;;;;;;51.40;12.60;;;;;;;21.63;65.89;99964.27;108335;1278;22001;-59
2023/06/30 03:49:49;;;;;;;160.20;34.90;;;;;;;21.77;66.85;99963.55;108358;1277;21992;-59
2023/06/30 03:52:17;;;;;;;10.80;6.40;;;;;;;21.92;65.97;99964.91;108371;1282;21995;-58
2023/06/30 03:54:43;;;;;;;91.80;22.60;;;;;;;22.03;65.42;99966.86;108354;1278;22021;-58
2023/06/30 03:57:08;;;;;;;104.60;19.30;;;;;;;22.13;64.79;99971.35;108339;1279;21980;-67
2023/06/30 03:59:34;;;;;;;11.50;6.70;;;;;;;22.26;64.74;99973.39;108373;1283;21994;-59
2023/06/30 04:02:00;;;;;;;11.00;6.20;;;;;;;22.38;64.69;99978.62;108351;1283;21992;-68
2023/06/30 04:04:26;;;;;;;11.50;5.60;;;;;;;22.49;64.29;99980.60;108335;1277;21995;-59
2023/06/30 04:06:52;;;;;;;11.40;5.90;;;;;;;22.60;64.22;99982.17;108341;1283;21997;-67
2023/06/30 04:09:17;;;;;;;11.20;5.50;;;;;;;22.71;64.03;99979.27;108353;1283;22451;-60
2023/06/30 04:11:44;;;;;;;10.20;5.60;;;;;;;22.83;63.70;99977.77;108369;1283;21976;-59
2023/06/30 04:14:11;;;;;;;7.10;4.80;;;;;;;22.93;63.91;99978.62;108437;1277;24425;-59
2023/06/30 04:16:36;;;;;;;6.80;4.90;;;;;;;23.07;63.71;99981.27;108364;1278;21987;-67
2023/06/30 04:19:02;;;;;;;6.70;5.30;;;;;;;23.18;63.48;99978.85;108241;1274;21985;-60
2023/06/30 04:21:28;;;;;;;6.20;5.10;;;;;;;23.29;63.32;99980.27;108232;1278;22157;-67
2023/06/30 04:23:53;;;;;;;10.40;5.90;;;;;;;23.40;62.97;99982.84;108220;1283;21998;-68
2023/06/30 04:26:19;;;;;;;11.20;5.50;;;;;;;23.54;63.19;99983.13;109966;1278;21994;-60
2023/06/30 04:28:45;;;;;;;116.50;82.50;;;;;;;23.69;62.75;99983.07;108345;1283;21985;-69
2023/06/30 04:31:13;;;;;;;377.00;268.80;;;;;;;23.82;62.45;99985.00;108362;1283;22003;-59
2023/06/30 04:33:39;;;;;;;196.50;144.10;;;;;;;23.97;61.98;99982.84;108357;1277;21993;-68
2023/06/30 04:36:06;;;;;;;110.40;90.70;;;;;;;24.12;61.74;99982.29;108414;1283;21986;-67
2023/06/30 04:38:33;;;;;;;19.40;15.20;;;;;;;24.23;61.17;99985.19;108429;1277;21986;-69
2023/06/30 04:40:59;;;;;;;12.40;9.00;;;;;;;24.33;60.91;99984.60;108402;1283;22017;-68
2023/06/30 04:43:25;;;;;;;10.20;6.00;;;;;;;24.46;60.96;99981.71;108388;1283;23648;-61
2023/06/30 04:45:51;;;;;;;7.40;5.90;;;;;;;24.57;60.51;99981.58;108358;1282;21979;-59
2023/06/30 04:48:16;;;;;;;6.60;5.40;;;;;;;24.66;60.44;99981.05;108388;1277;21990;-60
2023/06/30 04:50:42;;;;;;;11.40;5.50;;;;;;;24.78;60.18;99983.19;108410;1272;21947;-68
2023/06/30 04:53:07;;;;;;;8.00;6.30;;;;;;;24.87;59.59;99986.48;108389;1282;21994;-60
2023/06/30 04:55:33;;;;;;;11.60;6.50;;;;;;;24.95;59.45;99989.91;108384;1283;21990;-60
2023/06/30 04:57:59;;;;;;;7.30;5.40;;;;;;;25.08;59.48;99997.73;108387;1282;21986;-61
2023/06/30 05:00:25;;;;;;;7.40;4.80;;;;;;;25.22;59.60;99995.35;108391;1279;21989;-67
2023/06/30 05:02:50;;;;;;;8.50;5.00;;;;;;;25.39;59.22;99996.57;108393;1272;21988;-60
2023/06/30 05:05:16;;;;;;;11.90;5.90;;;;;;;25.49;58.56;100002.02;108381;1283;21991;-61
2023/06/30 05:07:42;;;;;;;9.70;5.60;;;;;;;25.58;58.23;100002.36;108369;1273;21969;-69
2023/06/30 05:10:09;;;;;;;7.70;5.10;;;;;;;25.71;57.96;100003.52;108364;1283;21994;-59
2023/06/30 05:12:35;;;;;;;7.70;5.00;;;;;;;25.75;58.35;100008.55;108399;1283;22844;-60
2023/06/30 05:15:01;;;;;;;7.60;5.70;;;;;;;25.83;58.56;100002.16;108410;1280;22000;-69
2023/06/30 05:17:26;;;;;;;66.60;19.10;;;;;;;25.93;58.47;100001.13;108384;1279;22023;-60
2023/06/30 05:19:52;;;;;;;26.80;12.00;;;;;;;26.08;57.91;100000.84;108361;1283;21983;-70
2023/06/30 05:22:17;;;;;;;9.30;6.00;;;;;;;26.16;57.41;100000.52;108371;1283;21985;-68
2023/06/30 05:24:45;;;;;;;9.80;5.10;;;;;;;26.26;57.45;100002.27;108362;1281;21994;-59
2023/06/30 05:27:11;;;;;;;9.00;5.30;;;;;;;26.38;57.40;100004.81;108345;1281;21994;-59
2023/06/30 05:29:36;;;;;;;8.70;5.30;;;;;;;26.53;56.86;99996.33;108384;1283;21990;-69
2023/06/30 05:32:03;;;;;;;7.30;5.70;;;;;;;26.69;56.92;99987.10;108429;1283;22255;-60
2023/06/30 05:34:28;;;;;;;6.60;5.10;;;;;;;26.87;56.87;99986.65;108442;1280;22022;-60
2023/06/30 05:36:55;;;;;;;13.60;11.20;;;;;;;27.05;56.06;99984.50;108489;1280;21990;-60
2023/06/30 05:39:22;;;;;;;39.30;34.90;;;;;;;27.19;55.46;99980.36;108399;1275;21989;-68
2023/06/30 05:41:47;;;;;;;15.30;12.70;;;;;;;27.30;55.05;99984.34;108446;1282;21985;-69
2023/06/30 05:44:13;;;;;;;8.80;6.70;;;;;;;27.42;55.23;99989.35;108357;1279;21992;-59
2023/06/30 05:46:39;;;;;;;9.10;6.40;;;;;;;27.55;54.59;99984.10;108523;1280;22000;-70
2023/06/30 05:49:05;;;;;;;10.10;5.30;;;;;;;27.75;54.76;99983.70;108357;1280;21983;-69
2023/06/30 05:51:35;;;;;;;7.90;5.80;;;;;;;27.99;53.79;99986.98;108399;1281;21982;-60
2023/06/30 05:54:04;;;;;;;7.90;5.50;;;;;;;28.15;51.72;99988.77;108446;1283;21986;-65
2023/06/30 05:56:30;;;;;;;6.20;5.50;;;;;;;28.31;51.38;99987.84;108422;1281;21986;-61
2023/06/30 05:58:57;;;;;;;8.40;5.80;;;;;;;28.43;51.19;99981.85;108352;1277;21985;-62
2023/06/30 06:01:22;;;;;;;10.00;6.00;;;;;;;28.56;51.40;99979.14;108416;1283;22043;-69
2023/06/30 06:03:48;;;;;;;12.90;6.30;;;;;;;28.75;51.19;99979.23;108380;1281;24323;-69
2023/06/30 06:06:13;;;;;;;8.50;6.10;;;;;;;28.97;51.40;99978.27;108367;1270;21993;-61
2023/06/30 06:08:40;;;;;;;10.70;6.30;;;;;;;29.14;51.06;99981.64;108419;1273;21991;-69
2023/06/30 06:11:06;;;;;;;8.10;6.00;;;;;;;29.30;50.57;99979.22;108445;1279;22020;-61
2023/06/30 06:13:37;;;;;;;11.50;7.60;;;;;;;29.42;49.69;99982.98;108363;1283;22001;-70
2023/06/30 06:16:03;;;;;;;;;;;;;;;29.51;48.88;99981.36;108393;1281;24381;-70
2023/06/30 06:18:29;;;;;;;7.40;5.20;;;;;;;29.60;49.09;99976.70;108395;1274;21984;-70
2023/06/30 06:20:55;;;;;;;11.00;6.00;;;;;;;29.63;48.77;99973.66;108379;1277;22487;-61
2023/06/30 06:23:21;;;;;;;7.90;5.90;;;;;;;29.70;48.45;99972.44;108347;1272;21986;-69
2023/06/30 06:25:48;;;;;;;12.00;6.40;;;;;;;29.85;48.74;99965.00;108394;1283;22001;-61
2023/06/30 06:28:13;;;;;;;10.10;6.00;;;;;;;29.97;47.55;99966.52;108406;1275;22023;-61
2023/06/30 06:30:39;;;;;;;11.80;5.50;;;;;;;30.06;47.10;99971.05;108362;1282;21992;-70
2023/06/30 06:33:05;;;;;;;12.50;6.20;;;;;;;30.26;47.53;99970.27;108351;1277;21979;-70
2023/06/30 06:35:32;;;;;;;13.40;7.10;;;;;;;30.47;46.09;99971.92;108376;1283;21986;-61
2023/06/30 06:37:58;;;;;;;60.40;14.50;;;;;;;30.57;45.68;99975.16;108400;1277;22067;-61
2023/06/30 06:40:24;;;;;;;21.70;7.40;;;;;;;30.64;46.62;99977.48;108350;1283;21988;-61
2023/06/30 06:42:50;;;;;;;24.20;15.60;;;;;;;30.75;46.34;99972.91;108349;1283;21996;-70
2023/06/30 06:45:17;;;;;;;21.70;10.80;;;;;;;30.89;45.83;99971.47;108367;1283;21986;-60
2023/06/30 06:48:21;;;;;;;18.30;8.40;;;;;;;31.01;45.44;99967.11;108399;1283;21982;-70
2023/06/30 06:50:48;;;;;;;8.90;6.30;;;;;;;31.09;45.49;99966.11;108362;1283;23050;-70
2023/06/30 06:53:17;;;;;;;15.70;10.80;;;;;;;31.14;44.37;99967.38;108445;1281;21991;-62
2023/06/30 06:55:43;;;;;;;11.00;5.70;;;;;;;31.18;43.27;99961.38;108401;1281;22840;-61
2023/06/30 06:58:09;;;;;;;11.80;9.70;;;;;;;31.25;41.84;99963.86;108374;1283;21980;-71
2023/06/30 07:00:35;;;;;;;25.70;20.80;;;;;;;31.26;40.93;99967.20;108414;1274;21983;-71
2023/06/30 07:03:01;;;;;;;8.40;7.50;;;;;;;31.29;40.22;99962.59;108203;1280;21989;-70
2023/06/30 07:05:26;;;;;;;133.30;27.10;;;;;;;31.39;40.57;99958.97;108357;1283;21985;-61
2023/06/30 07:07:52;;;;;;;10.20;5.60;;;;;;;31.53;40.73;99958.23;108363;1283;22002;-67
2023/06/30 07:10:18;;;;;;;25.80;11.60;;;;;;;31.66;40.93;99954.86;108393;1273;21986;-67
2023/06/30 07:12:43;;;;;;;26.50;11.00;;;;;;;31.81;40.33;99951.58;108418;1283;22008;-59
2023/06/30 07:15:10;;;;;;;18.40;8.10;;;;;;;31.96;39.92;99951.63;108394;1282;21986;-59
2023/06/30 07:17:35;;;;;;;9.30;4.70;;;;;;;32.12;40.03;99948.92;108373;1277;21980;-69
2023/06/30 07:20:01;;;;;;;8.60;5.60;;;;;;;32.29;40.20;99942.21;108390;1276;21988;-59
2023/06/30 07:22:27;;;;;;;8.20;4.50;;;;;;;32.42;39.27;99941.37;108386;1277;21980;-68
2023/06/30 07:24:52;;;;;;;5.20;4.00;;;;;;;32.54;39.04;99936.55;108364;1277;21985;-67
2023/06/30 07:27:18;;;;;;;6.90;4.10;;;;;;;32.73;38.72;99934.04;108372;1283;21994;-59
2023/06/30 07:29:44;;;;;;;5.40;4.00;;;;;;;32.88;38.15;99933.13;108396;1279;22000;-60
2023/06/30 07:32:10;;;;;;;5.40;3.80;;;;;;;32.90;36.37;99940.11;108369;1274;22005;-69
2023/06/30 07:34:37;;;;;;;4.90;3.80;;;;;;;32.97;37.31;99944.03;108403;1274;21989;-70
2023/06/30 07:37:04;;;;;;;5.10;3.50;;;;;;;33.01;37.16;99939.59;108394;1278;21994;-70
2023/06/30 07:39:30;;;;;;;6.50;4.20;;;;;;;33.11;36.99;99942.09;108381;1278;21983;-59
2023/06/30 07:41:55;;;;;;;4.70;3.90;;;;;;;33.13;37.29;99942.59;108398;1278;22006;-59
2023/06/30 07:44:21;;;;;;;6.30;4.50;;;;;;;33.13;37.93;99940.48;108391;1282;22665;-60
2023/06/30 07:46:46;;;;;;;7.80;4.40;;;;;;;33.23;38.54;99946.08;108355;1281;21987;-60
2023/06/30 07:49:12;;;;;;;11.10;6.30;;;;;;;33.18;37.96;99944.42;108375;1278;22055;-70
2023/06/30 07:51:38;;;;;;;6.80;5.10;;;;;;;33.11;38.03;99943.70;108367;1278;21968;-59
2023/06/30 07:54:03;;;;;;;6.60;4.20;;;;;;;33.04;38.13;99941.67;108350;1277;21996;-71
2023/06/30 07:56:29;;;;;;;6.20;4.70;;;;;;;32.94;37.88;99948.41;108353;1273;21983;-70
2023/06/30 07:58:55;;;;;;;6.40;4.70;;;;;;;33.01;38.06;99947.56;108052;1280;350571;-70
2023/06/30 08:01:20;;;;;;;5.10;4.60;;;;;;;33.18;37.05;99946.98;108311;1277;21989;-59
2023/06/30 08:03:48;;;;;;;11.90;4.30;;;;;;;33.33;37.55;99947.92;108311;1283;23453;-70
2023/06/30 08:06:15;;;;;;;5.60;4.40;;;;;;;33.33;37.09;99943.45;108430;1283;21979;-69
2023/06/30 08:08:41;;;;;;;4.70;4.00;;;;;;;33.38;37.73;99945.23;108444;1281;21982;-60
2023/06/30 08:11:06;;;;;;;6.50;4.20;;;;;;;33.64;37.77;99946.24;108302;1283;21982;-69
2023/06/30 08:13:33;;;;;;;5.90;3.60;;;;;;;33.86;37.42;99947.50;108391;1283;21980;-59
2023/06/30 08:15:59;;;;;;;7.40;4.00;;;;;;;34.02;36.28;99949.61;108418;1283;21986;-69
2023/06/30 08:18:28;;;;;;;7.50;4.10;;;;;;;34.12;36.51;99951.20;108376;1283;21991;-60
2023/06/30 08:20:55;;;;;;;7.00;3.90;;;;;;;34.17;35.71;99951.89;108396;1276;22039;-60
2023/06/30 08:23:22;;;;;;;6.80;4.10;;;;;;;34.13;35.70;99952.73;108379;1283;21992;-60
2023/06/30 08:25:47;;;;;;;5.50;3.80;;;;;;;34.13;35.57;99955.80;108374;1281;21991;-59
2023/06/30 08:28:13;;;;;;;5.00;4.00;;;;;;;33.93;34.94;99954.14;108382;1283;21983;-61
2023/06/30 08:30:39;;;;;;;4.70;3.70;;;;;;;33.87;35.37;99952.59;108372;1283;21982;-59
2023/06/30 08:33:04;;;;;;;4.90;3.80;;;;;;;33.94;35.53;99951.86;108357;1276;21989;-59
2023/06/30 08:35:30;;;;;;;4.00;3.50;;;;;;;34.07;35.17;99950.45;108361;1283;23602;-59
2023/06/30 08:37:56;;;;;;;5.60;3.70;;;;;;;34.26;35.69;99949.47;108384;1283;21987;-62
2023/06/30 08:40:25;;;;;;;4.50;3.60;;;;;;;34.43;35.37;99946.60;108370;1273;21989;-69
2023/06/30 08:42:52;;;;;;;7.50;3.80;;;;;;;34.61;35.27;99947.33;108369;1283;21989;-59
2023/06/30 08:45:18;;;;;;;6.30;3.30;;;;;;;34.68;34.55;99949.72;108434;1277;21999;-71
2023/06/30 08:47:44;;;;;;;11.10;3.90;;;;;;;34.75;34.34;99951.42;108360;1274;21983;-70
2023/06/30 08:50:10;;;;;;;8.60;3.40;;;;;;;34.74;34.49;99952.12;108259;1280;22019;-60
2023/06/30 08:52:36;;;;;;;4.30;3.50;;;;;;;34.64;33.89;99954.42;108160;1283;21999;-60
2023/06/30 08:55:02;;;;;;;6.00;3.70;;;;;;;34.42;33.75;99953.25;108379;1274;21983;-70
2023/06/30 08:57:29;;;;;;;7.70;3.80;;;;;;;34.21;34.24;99953.55;108397;1283;21987;-71
2023/06/30 08:59:55;;;;;;;9.40;3.70;;;;;;;34.15;34.44;99955.67;108421;1283;21990;-70
2023/06/30 09:02:21;;;;;;;14.90;4.50;;;;;;;34.18;34.73;99959.71;108224;1281;21999;-59
2023/06/30 09:04:47;;;;;;;6.40;4.20;;;;;;;34.13;34.22;99961.20;108383;1283;22013;-70
2023/06/30 09:07:20;;;;;;;7.90;3.90;;;;;;;33.97;34.28;99961.42;108329;1277;22455;-60
2023/06/30 09:09:45;;;;;;;5.50;3.50;;;;;;;33.93;34.80;99955.89;108284;1278;23048;-59
2023/06/30 09:12:11;;;;;;;4.80;3.40;;;;;;;34.01;34.67;99954.47;108201;1283;22015;-60
2023/06/30 09:14:40;;;;;;;6.70;3.40;;;;;;;33.94;34.55;99956.39;108401;1276;21981;-60
2023/06/30 09:17:06;;;;;;;4.60;3.60;;;;;;;33.76;34.19;99955.30;108412;1283;22018;-70
2023/06/30 09:19:32;;;;;;;4.60;3.30;;;;;;;33.68;34.94;99954.98;108367;1279;21983;-70
2023/06/30 09:21:58;;;;;;;5.90;3.60;;;;;;;33.67;34.52;99955.81;108401;1283;22012;-73
2023/06/30 09:24:24;;;;;;;5.40;4.00;;;;;;;33.68;34.54;99956.48;108372;1277;22117;-61
2023/06/30 09:26:50;;;;;;;6.60;4.30;;;;;;;33.70;34.76;99951.84;108375;1283;22096;-60
2023/06/30 09:29:18;;;;;;;4.60;3.60;;;;;;;33.61;34.24;99952.53;108397;1280;22002;-59
2023/06/30 09:31:43;;;;;;;4.40;3.20;;;;;;;33.50;34.64;99952.40;108394;1283;21999;-59
2023/06/30 09:34:10;;;;;;;6.10;3.40;;;;;;;33.50;34.70;99952.58;108214;1280;21992;-60
2023/06/30 09:36:38;;;;;;;6.70;3.50;;;;;;;33.64;34.78;99953.34;108383;1283;22040;-72
2023/06/30 09:39:08;;;;;;;4.40;3.40;;;;;;;33.81;34.34;99950.84;108374;1283;21988;-72
2023/06/30 09:41:34;;;;;;;6.10;3.10;;;;;;;33.93;34.35;99948.83;108392;1277;21983;-71
2023/06/30 09:44:00;;;;;;;3.90;3.20;;;;;;;33.98;34.29;99947.83;108377;1283;21982;-71
2023/06/30 09:46:27;;;;;;;5.60;3.20;;;;;;;34.07;34.13;99945.20;108383;1280;21982;-73
2023/06/30 09:48:53;;;;;;;6.90;3.50;;;;;;;34.17;33.67;99943.31;108382;1283;21991;-73
2023/06/30 09:51:22;;;;;;;5.00;3.40;;;;;;;34.23;33.25;99944.38;108346;1276;21982;-73
2023/06/30 09:53:50;;;;;;;4.90;3.20;;;;;;;34.31;33.61;99940.67;108358;1283;21950;-62
2023/06/30 09:56:21;;;;;;;4.40;3.10;;;;;;;34.51;33.97;99938.64;108287;1283;21982;-71
2023/06/30 09:58:47;;;;;;;4.60;3.50;;;;;;;34.73;33.10;99933.08;108398;1277;22018;-72
2023/06/30 10:01:12;;;;;;;4.40;3.30;;;;;;;34.75;32.67;99933.30;108315;1278;21995;-71
2023/06/30 10:03:51;;;;;;;4.70;3.20;;;;;;;34.70;33.06;99930.91;108101;1279;21982;-63
2023/06/30 10:06:17;;;;;;;4.10;2.90;;;;;;;34.83;32.68;99919.20;108493;1276;23605;-71
2023/06/30 10:08:46;;;;;;;4.30;2.60;;;;;;;35.02;32.33;99923.30;108369;1277;21971;-71
2023/06/30 10:11:12;;;;;;;5.00;2.90;;;;;;;35.15;31.63;99917.41;108112;1280;22020;-72
2023/06/30 10:13:38;;;;;;;5.30;2.80;;;;;;;35.39;32.05;99909.61;108299;1281;22740;-73
2023/06/30 10:16:04;;;;;;;3.10;2.70;;;;;;;35.56;31.99;99907.13;108179;1283;21986;-62
2023/06/30 10:18:30;;;;;;;4.30;2.70;;;;;;;35.62;31.80;99908.15;108410;1276;21980;-68
2023/06/30 10:20:56;;;;;;;4.20;2.90;;;;;;;35.62;31.82;99905.86;108227;1278;21988;-72
2023/06/30 10:23:22;;;;;;;3.50;2.60;;;;;;;35.65;31.99;99905.73;108368;1277;21988;-63
2023/06/30 10:25:47;;;;;;;3.20;2.60;;;;;;;35.82;31.38;99900.38;108324;1273;22036;-72
2023/06/30 10:28:13;;;;;;;3.60;2.70;;;;;;;36.14;31.27;99896.48;108319;1274;21992;-72
2023/06/30 10:30:39;;;;;;;4.80;2.10;;;;;;;36.34;31.10;99896.43;108370;1282;21983;-73
2023/06/30 10:33:05;;;;;;;4.80;3.30;;;;;;;36.35;29.86;99889.83;108358;1274;22000;-73
2023/06/30 10:35:31;;;;;;;6.00;2.50;;;;;;;36.10;29.70;99889.14;108394;1278;21987;-61
2023/06/30 10:37:57;;;;;;;5.60;2.30;;;;;;;35.82;29.77;99887.77;108120;1282;22169;-73
2023/06/30 10:40:26;;;;;;;4.10;2.40;;;;;;;35.70;29.88;99882.34;108338;1282;21984;-62
2023/06/30 10:42:54;;;;;;;10.90;3.30;;;;;;;35.55;29.73;99884.42;108386;1277;21992;-73
2023/06/30 10:45:20;;;;;;;7.60;2.70;;;;;;;35.61;29.69;99877.04;108420;1282;21977;-62
2023/06/30 10:47:50;;;;;;;5.10;2.30;;;;;;;35.84;28.92;99873.11;108342;1282;21987;-62
2023/06/30 10:50:16;;;;;;;3.00;2.40;;;;;;;35.92;29.45;99872.05;108383;1277;21978;-62
2023/06/30 10:52:52;;;;;;;4.10;2.90;;;;;;;35.91;30.03;99868.20;108383;1282;22011;-62
2023/06/30 10:55:20;;;;;;;4.60;2.70;;;;;;;35.81;30.22;99864.19;108377;1278;21985;-72
2023/06/30 10:57:49;;;;;;;7.20;2.80;;;;;;;35.86;29.88;99863.14;108435;1281;22014;-62
2023/06/30 11:00:15;;;;;;;4.90;2.50;;;;;;;36.00;30.04;99855.07;108437;1277;21988;-62
2023/06/30 11:02:49;;;;;;;5.10;2.80;;;;;;;36.01;29.56;99853.02;108423;1272;22000;-62
2023/06/30 11:05:29;;;;;;;5.10;2.60;;;;;;;36.03;29.67;99854.41;108404;1283;23615;-73
2023/06/30 11:08:01;;;;;;;6.40;2.60;;;;;;;36.03;29.20;99856.77;108507;1271;22086;-62
2023/06/30 11:10:32;;;;;;;4.00;2.50;;;;;;;35.87;28.94;99861.09;108345;1283;21982;-62
2023/06/30 11:13:05;;;;;;;6.80;2.90;;;;;;;35.63;29.54;99870.27;108368;1278;22764;-62
2023/06/30 11:15:36;;;;;;;8.60;3.10;;;;;;;35.43;30.00;99881.20;108512;1280;21992;-60
2023/06/30 11:18:03;;;;;;;7.50;3.00;;;;;;;35.10;31.50;99883.81;108527;1273;21981;-63
2023/06/30 11:20:31;;;;;;;4.10;3.00;;;;;;;34.67;32.46;99874.49;108541;1282;21981;-62